Time;durP1;ratioP1;P1;durP2;ratioP2;P2;SDS_P1;SDS_P2;PMS_P1;PMS_P2;Temp;Humidity;BMP_temperature;BMP_pressure;BME280_temperature;BME280_humidity;BME280_pressure;Samples;Min_cycle;Max_cycle;Signal;HPM_P1;HPM_P2
2022/05/01 00:00:10;;;;;;;;;;;;;;;6.83;100.00;99878.84;1767782;81;20456;-73
2022/05/01 00:02:37;;;;;;;;;;;;;;;6.83;100.00;99883.34;1767806;80;20113;-72
2022/05/01 00:05:06;;;;;;;;;;;;;;;6.84;100.00;99869.75;1767786;81;20101;-73
2022/05/01 00:07:33;;;;;;;;;;;;;;;6.88;100.00;99862.75;1767558;81;20089;-73
2022/05/01 00:10:00;;;;;;;;;;;;;;;6.97;100.00;99860.48;1768031;80;20113;-74
2022/05/01 00:12:29;;;;;;;;;;;;;;;7.05;100.00;99853.86;1767920;80;20134;-72
2022/05/01 00:14:56;;;;;;;;;;;;;;;7.11;100.00;99855.91;1767632;80;20137;-73
2022/05/01 00:17:23;;;;;;;;;;;;;;;7.17;100.00;99856.66;1767989;81;20103;-74
2022/05/01 00:19:50;;;;;;;;;;;;;;;7.24;100.00;99852.84;1768129;80;20113;-73
2022/05/01 00:22:17;;;;;;;;;;;;;;;7.32;100.00;99851.58;1768231;81;20110;-73
2022/05/01 00:24:44;;;;;;;;;;;;;;;7.40;100.00;99836.00;1768384;81;20108;-74
2022/05/01 00:27:11;;;;;;;;;;;;;;;7.48;100.00;99840.62;1768468;81;20105;-74
2022/05/01 00:29:37;;;;;;;;;;;;;;;7.52;100.00;99845.52;1768356;80;20110;-73
2022/05/01 00:32:05;;;;;;;;;;;;;;;7.55;100.00;99847.90;1770054;81;20109;-74
2022/05/01 00:37:19;;;;;;;;;;;;;;;7.60;100.00;99854.17;1746222;81;20124;-71
2022/05/01 00:39:47;;;;;;;;;;;;;;;7.63;100.00;99851.65;1783940;79;20124;-72
2022/05/01 00:42:17;;;;;;;;;;;;;;;7.64;100.00;99862.27;1813580;79;20157;-73
2022/05/01 00:44:44;;;;;;;;;;;;;;;7.63;100.00;99861.06;1813214;79;20125;-76
2022/05/01 00:47:11;;;;;;;;;;;;;;;7.62;100.00;99858.05;1813019;79;20156;-73
2022/05/01 00:49:39;;;;;;;;;;;;;;;7.57;100.00;99859.86;1812297;79;20492;-74
2022/05/01 00:52:09;;;;;;;;;;;;;;;7.53;100.00;99857.98;1812740;79;20128;-73
2022/05/01 00:54:41;;;;;;;;;;;;;;;7.48;100.00;99854.91;1813088;79;20129;-74
2022/05/01 00:57:09;;;;;;;;;;;;;;;7.43;100.00;99851.83;1812751;79;20117;-73
2022/05/01 00:59:36;;;;;;;;;;;;;;;7.39;100.00;99846.43;1812672;79;20117;-73
2022/05/01 01:02:04;;;;;;;;;;;;;;;7.37;100.00;99852.47;1812510;79;20125;-74
2022/05/01 01:04:32;;;;;;;;;;;;;;;7.35;100.00;99850.44;1812765;78;20427;-73
2022/05/01 01:06:59;;;;;;;;;;;;;;;7.30;100.00;99844.17;1812503;79;20148;-75
2022/05/01 01:09:26;;;;;;;;;;;;;;;7.25;100.00;99831.68;1812692;79;20429;-73
2022/05/01 01:12:53;;;;;;;;;;;;;;;7.21;100.00;99826.27;1812427;79;20124;-73
2022/05/01 01:14:24;;;;;;;;;;;;;;;7.18;100.00;99825.23;1809881;79;20129;-74
2022/05/01 01:16:52;;;;;;;;;;;;;;;7.15;100.00;99814.78;1812531;78;20155;-73
2022/05/01 01:19:18;;;;;;;;;;;;;;;7.14;100.00;99816.63;1812785;79;20116;-73
2022/05/01 01:21:49;;;;;;;;;;;;;;;7.15;100.00;99806.71;1812818;79;20449;-74
2022/05/01 01:24:15;;;;;;;;;;;;;;;7.18;100.00;99805.06;1813259;79;20125;-73
2022/05/01 01:26:43;;;;;;;;;;;;;;;7.25;100.00;99797.23;1812675;79;20148;-74
2022/05/01 01:31:55;;;;;;;;;;;;;;;7.42;100.00;99786.95;1812662;79;20414;-73
2022/05/01 01:34:22;;;;;;;;;;;;;;;7.54;100.00;99785.69;1812451;79;20121;-73
2022/05/01 01:36:49;;;;;;;;;;;;;;;7.66;100.00;99782.72;1803291;79;20116;-74
2022/05/01 01:39:18;;;;;;;;;;;;;;;7.74;100.00;99783.62;1796623;79;20116;-74
2022/05/01 01:41:44;;;;;;;;;;;;;;;7.83;100.00;99779.13;1794573;80;20436;-74
2022/05/01 01:44:12;;;;;;;;;;;;;;;7.88;100.00;99779.50;1794308;80;20088;-73
2022/05/01 01:46:39;;;;;;;;;;;;;;;7.95;100.00;99787.27;1772215;80;20397;-74
2022/05/01 01:49:10;;;;;;;;;;;;;;;8.02;100.00;99789.31;1794690;80;20096;-73
2022/05/01 01:51:38;;;;;;;;;;;;;;;8.06;100.00;99787.49;1794160;80;20127;-73
2022/05/01 01:54:06;;;;;;;;;;;;;;;8.10;100.00;99796.09;1794477;80;20108;-73
2022/05/01 01:56:33;;;;;;;;;;;;;;;8.15;100.00;99807.23;1794744;80;20981;-75
2022/05/01 01:58:59;;;;;;;;;;;;;;;8.19;100.00;99813.97;1794242;80;20108;-74
2022/05/01 02:01:26;;;;;;;;;;;;;;;8.24;100.00;99824.28;1794491;80;20088;-72
2022/05/01 02:03:54;;;;;;;;;;;;;;;8.28;100.00;99837.24;1794248;79;20128;-74
2022/05/01 02:06:21;;;;;;;;;;;;;;;8.31;100.00;99843.66;1794483;80;20113;-74
2022/05/01 02:08:49;;;;;;;;;;;;;;;8.32;100.00;99845.36;1794388;80;20131;-74
2022/05/01 02:11:17;;;;;;;;;;;;;;;8.33;100.00;99850.23;1794620;79;20392;-72
2022/05/01 02:13:43;;;;;;;;;;;;;;;8.33;100.00;99856.97;1794448;80;20095;-73
2022/05/01 02:16:11;;;;;;;;;;;;;;;8.32;100.00;99858.83;1794544;80;20104;-73
2022/05/01 02:18:38;;;;;;;;;;;;;;;8.31;100.00;99858.98;1794412;80;20127;-75
2022/05/01 02:23:51;;;;;;;;;;;;;;;8.30;100.00;99872.94;1796403;80;20166;-73
2022/05/01 02:26:18;;;;;;;;;;;;;;;8.30;100.00;99885.57;1795069;80;20412;-74
2022/05/01 02:28:45;;;;;;;;;;;;;;;8.30;100.00;99887.75;1794696;80;20092;-73
2022/05/01 02:31:12;;;;;;;;;;;;;;;8.31;100.00;99890.80;1794284;80;20408;-72
2022/05/01 02:33:39;;;;;;;;;;;;;;;8.32;100.00;99891.64;1794366;80;20127;-74
2022/05/01 02:36:07;;;;;;;;;;;;;;;8.33;100.00;99891.48;1798946;79;20423;-74
2022/05/01 02:38:34;;;;;;;;;;;;;;;8.35;100.00;99894.86;1807274;79;20102;-74
2022/05/01 02:41:02;;;;;;;;;;;;;;;8.36;100.00;99897.08;1809547;79;20091;-74
2022/05/01 02:43:29;;;;;;;;;;;;;;;8.38;100.00;99900.95;1809915;79;20130;-73
2022/05/01 02:45:56;;;;;;;;;;;;;;;8.39;100.00;99902.63;1810054;79;20395;-73
2022/05/01 02:48:25;;;;;;;;;;;;;;;8.39;100.00;99912.06;1809617;79;20102;-75
2022/05/01 02:50:52;;;;;;;;;;;;;;;8.40;100.00;99912.41;1809572;79;20145;-74
2022/05/01 02:53:19;;;;;;;;;;;;;;;8.40;100.00;99921.33;1809950;79;20082;-74
2022/05/01 02:55:49;;;;;;;;;;;;;;;8.41;100.00;99923.52;1809707;79;20102;-75
2022/05/01 02:58:15;;;;;;;;;;;;;;;8.44;100.00;99936.20;1810068;79;20411;-73
2022/05/01 03:00:42;;;;;;;;;;;;;;;8.45;100.00;99931.67;1809854;79;20094;-74
2022/05/01 03:03:13;;;;;;;;;;;;;;;8.48;100.00;99936.72;1810179;79;20173;-74
2022/05/01 03:05:40;;;;;;;;;;;;;;;8.50;100.00;99940.97;1809794;79;20134;-73
2022/05/01 03:08:08;;;;;;;;;;;;;;;8.52;100.00;99947.03;1809787;79;20095;-73
2022/05/01 03:10:36;;;;;;;;;;;;;;;8.56;100.00;99955.64;1809946;79;20426;-73
2022/05/01 03:13:02;;;;;;;;;;;;;;;8.60;100.00;99965.59;1810032;79;20082;-74
2022/05/01 03:15:29;;;;;;;;;;;;;;;8.64;100.00;99972.34;1810050;79;20138;-73
2022/05/01 03:23:28;;;;;;;;;;;;;;;8.75;100.00;99984.22;1809908;79;20399;-74
2022/05/01 03:25:54;;;;;;;;;;;;;;;8.76;100.00;99989.94;1809824;79;20103;-73
2022/05/01 03:28:21;;;;;;;;;;;;;;;8.78;100.00;99989.78;1810151;79;20138;-73
2022/05/01 03:30:49;;;;;;;;;;;;;;;8.79;100.00;99984.74;1809721;79;20122;-73
2022/05/01 03:33:20;;;;;;;;;;;;;;;8.82;100.00;99985.75;1809880;79;20391;-73
2022/05/01 03:35:44;;;;;;;;;;;;;;;8.82;100.00;99987.97;1812272;79;20193;-73
2022/05/01 03:38:12;;;;;;;;;;;;;;;8.86;100.00;99985.79;1812539;79;20401;-74
2022/05/01 03:40:38;;;;;;;;;;;;;;;8.92;100.00;99981.08;1815371;79;20391;-73
2022/05/01 03:43:05;;;;;;;;;;;;;;;8.98;100.00;99981.80;1817329;79;20460;-74
2022/05/01 03:45:32;;;;;;;;;;;;;;;9.03;100.00;99983.52;1817599;79;20173;-74
2022/05/01 03:47:59;;;;;;;;;;;;;;;9.09;100.00;99980.15;1817676;79;20124;-74
2022/05/01 03:50:26;;;;;;;;;;;;;;;9.15;100.00;99975.11;1817436;78;20141;-74
2022/05/01 03:52:53;;;;;;;;;;;;;;;9.22;100.00;99982.89;1817581;79;20113;-75
2022/05/01 03:55:20;;;;;;;;;;;;;;;9.28;100.00;99994.39;1817648;79;20496;-74
2022/05/01 03:57:47;;;;;;;;;;;;;;;9.35;100.00;100004.87;1817796;79;20164;-74
2022/05/01 04:00:18;;;;;;;;;;;;;;;9.42;100.00;100011.78;1817564;79;20132;-74
2022/05/01 04:02:43;;;;;;;;;;;;;;;9.49;100.00;100031.22;1818026;79;20140;-73
2022/05/01 04:05:10;;;;;;;;;;;;;;;9.57;100.00;100043.05;1817550;79;20444;-74
2022/05/01 04:07:37;;;;;;;;;;;;;;;9.65;100.00;100056.06;1817490;79;20121;-74
2022/05/01 04:10:04;;;;;;;;;;;;;;;9.72;100.00;100069.76;1817589;79;20113;-74
2022/05/01 04:12:42;;;;;;;;;;;;;;;9.80;100.00;100081.08;1819464;79;20179;-74
2022/05/01 04:15:11;;;;;;;;;;;;;;;9.87;100.00;100088.86;1818030;78;20124;-74
2022/05/01 04:17:41;;;;;;;;;;;;;;;9.96;100.00;100109.47;1817729;79;20120;-75
2022/05/01 04:20:13;;;;;;;;;;;;;;;10.03;100.00;100127.22;1817683;78;20444;-74
2022/05/01 04:22:43;;;;;;;;;;;;;;;10.11;100.00;100148.86;1817886;79;20144;-73
2022/05/01 04:25:17;;;;;;;;;;;;;;;10.18;100.00;100157.98;1817547;79;20136;-73
2022/05/01 04:27:48;;;;;;;;;;;;;;;10.28;100.00;100177.25;1817732;79;20116;-73
2022/05/01 04:30:15;;;;;;;;;;;;;;;10.35;100.00;100203.99;1817543;79;20164;-75
2022/05/01 04:32:50;;;;;;;;;;;;;;;10.43;100.00;100229.19;1817658;79;20136;-75
2022/05/01 04:35:28;;;;;;;;;;;;;;;10.54;100.00;100260.98;1815680;79;20087;-74
2022/05/01 04:38:00;;;;;;;;;;;;;;;10.66;100.00;100288.05;1777756;81;20125;-75
2022/05/01 04:40:28;;;;;;;;;;;;;;;10.77;100.00;100315.28;1779629;80;20152;-74
2022/05/01 04:43:04;;;;;;;;;;;;;;;10.90;100.00;100355.37;1782330;81;20160;-74
2022/05/01 04:45:31;;;;;;;;;;;;;;;11.00;100.00;100387.20;1782391;81;20164;-73
2022/05/01 04:47:58;;;;;;;;;;;;;;;11.10;100.00;100436.63;1782637;81;20160;-75
2022/05/01 04:50:25;;;;;;;;;;;;;;;11.19;100.00;100478.06;1782426;81;20128;-75
2022/05/01 04:52:52;;;;;;;;;;;;;;;11.31;100.00;100497.56;1782638;81;20124;-75
2022/05/01 04:55:20;;;;;;;;;;;;;;;11.40;100.00;100517.74;1782478;81;20167;-75
2022/05/01 04:57:47;;;;;;;;;;;;;;;11.51;100.00;100534.67;1782501;81;20460;-74
2022/05/01 05:00:14;;;;;;;;;;;;;;;11.62;100.00;100543.86;1782740;81;20125;-76
2022/05/01 05:02:42;;;;;;;;;;;;;;;11.73;100.00;100557.59;1782450;81;20132;-75
2022/05/01 05:05:10;;;;;;;;;;;;;;;11.86;100.00;100573.36;1782576;81;20428;-75
2022/05/01 05:07:37;;;;;;;;;;;;;;;11.99;100.00;100587.80;1782746;80;20465;-74
2022/05/01 05:10:05;;;;;;;;;;;;;;;12.09;100.00;100597.99;1757379;81;20152;-74
2022/05/01 05:12:32;;;;;;;;;;;;;;;12.18;100.00;100611.89;1782795;81;20136;-73
2022/05/01 05:15:00;;;;;;;;;;;;;;;12.25;100.00;100625.62;1782806;81;20117;-73
2022/05/01 05:17:28;;;;;;;;;;;;;;;12.29;100.00;100635.15;1782801;81;20128;-76
2022/05/01 05:19:54;;;;;;;;;;;;;;;12.36;100.00;100636.17;1782519;81;20182;-74
2022/05/01 05:22:21;;;;;;;;;;;;;;;12.47;100.00;100630.92;1782800;81;20156;-74
2022/05/01 05:24:48;;;;;;;;;;;;;;;12.62;100.00;100633.79;1782411;81;20136;-75
2022/05/01 05:27:17;;;;;;;;;;;;;;;12.72;100.00;100639.89;1782381;81;20156;-74
2022/05/01 05:29:44;;;;;;;;;;;;;;;12.83;100.00;100649.03;1782427;81;20120;-74
2022/05/01 05:32:11;;;;;;;;;;;;;;;12.93;100.00;100648.03;1782736;80;20468;-73
2022/05/01 05:34:38;;;;;;;;;;;;;;;13.05;100.00;100654.28;1790414;78;20099;-74
2022/05/01 05:37:05;;;;;;;;;;;;;;;13.18;100.00;100651.55;1799745;79;20106;-74
2022/05/01 05:39:32;;;;;;;;;;;;;;;13.23;100.00;100655.95;1799984;79;20099;-74
2022/05/01 05:41:59;;;;;;;;;;;;;;;13.30;100.00;100647.44;1804651;79;20126;-73
2022/05/01 05:44:26;;;;;;;;;;;;;;;13.38;100.00;100651.50;1805379;79;20107;-73
2022/05/01 05:46:53;;;;;;;;;;;;;;;13.46;100.00;100648.77;1805261;80;20095;-75
2022/05/01 05:49:20;;;;;;;;;;;;;;;13.58;100.00;100642.95;1805164;79;20173;-75
2022/05/01 05:51:48;;;;;;;;;;;;;;;13.67;100.00;100644.11;1805316;79;20106;-73
2022/05/01 05:54:15;;;;;;;;;;;;;;;13.78;100.00;100637.43;1805371;79;20387;-74
2022/05/01 05:56:43;;;;;;;;;;;;;;;13.92;100.00;100647.23;1805004;79;20134;-74
2022/05/01 05:59:09;;;;;;;;;;;;;;;14.06;100.00;100643.75;1805466;79;20418;-73
2022/05/01 06:01:36;;;;;;;;;;;;;;;14.22;100.00;100638.20;1806712;78;20090;-75
2022/05/01 06:04:03;;;;;;;;;;;;;;;14.35;100.00;100649.83;1808022;78;20105;-74
2022/05/01 06:06:30;;;;;;;;;;;;;;;14.48;100.00;100656.55;1806222;79;20123;-74
2022/05/01 06:08:57;;;;;;;;;;;;;;;14.61;100.00;100652.74;1805327;79;20107;-75
2022/05/01 06:11:26;;;;;;;;;;;;;;;14.75;100.00;100657.38;1805084;79;20126;-74
2022/05/01 06:13:53;;;;;;;;;;;;;;;14.94;100.00;100659.25;1805357;79;20094;-73
2022/05/01 06:16:20;;;;;;;;;;;;;;;15.10;100.00;100668.64;1805119;79;20458;-74
2022/05/01 06:18:47;;;;;;;;;;;;;;;15.24;100.00;100673.75;1805219;80;20122;-75
2022/05/01 06:21:13;;;;;;;;;;;;;;;15.46;100.00;100669.28;1805285;79;20422;-73
2022/05/01 06:23:40;;;;;;;;;;;;;;;15.66;100.00;100672.27;1805090;80;20130;-75
2022/05/01 06:26:07;;;;;;;;;;;;;;;15.81;100.00;100675.52;1805216;79;20105;-73
2022/05/01 06:28:34;;;;;;;;;;;;;;;16.00;100.00;100676.82;1809399;79;20095;-74
2022/05/01 06:31:03;;;;;;;;;;;;;;;16.21;100.00;100684.20;1805275;79;20099;-74
2022/05/01 06:33:29;;;;;;;;;;;;;;;16.38;100.00;100675.24;1804482;79;20106;-75
2022/05/01 06:35:58;;;;;;;;;;;;;;;16.47;100.00;100678.20;1746004;82;20104;-75
2022/05/01 06:38:25;;;;;;;;;;;;;;;16.46;100.00;100681.42;1716330;83;20130;-74
2022/05/01 06:40:51;;;;;;;;;;;;;;;16.49;100.00;100681.05;1752846;81;20105;-74
2022/05/01 06:43:19;;;;;;;;;;;;;;;16.52;100.00;100679.83;1773176;81;20109;-74
2022/05/01 06:45:46;;;;;;;;;;;;;;;16.59;100.00;100683.97;1773001;81;20120;-75
2022/05/01 06:48:13;;;;;;;;;;;;;;;16.59;100.00;100684.83;1773011;81;20105;-74
2022/05/01 06:50:40;;;;;;;;;;;;;;;16.63;100.00;100688.85;1773004;80;20140;-74
2022/05/01 06:53:07;;;;;;;;;;;;;;;16.70;100.00;100688.92;1773056;81;20105;-75
2022/05/01 06:55:36;;;;;;;;;;;;;;;16.80;100.00;100692.67;1772815;80;20421;-73
2022/05/01 06:58:02;;;;;;;;;;;;;;;16.86;100.00;100691.94;1773112;81;20129;-75
2022/05/01 07:00:29;;;;;;;;;;;;;;;16.88;97.36;100693.95;1773098;81;20113;-75
2022/05/01 07:02:57;;;;;;;;;;;;;;;16.82;93.37;100692.82;1772923;81;20097;-74
2022/05/01 07:05:24;;;;;;;;;;;;;;;16.82;95.03;100687.86;1772875;80;20091;-75
2022/05/01 07:07:51;;;;;;;;;;;;;;;16.92;92.68;100696.60;1773077;80;20098;-75
2022/05/01 07:10:18;;;;;;;;;;;;;;;16.97;83.36;100698.75;1773042;81;20097;-74
2022/05/01 07:12:45;;;;;;;;;;;;;;;16.95;80.57;100696.22;1751754;81;20109;-75
2022/05/01 07:15:13;;;;;;;;;;;;;;;16.86;76.13;100691.94;1773082;81;20132;-75
2022/05/01 07:17:40;;;;;;;;;;;;;;;16.69;76.87;100699.51;1773024;81;20129;-75
2022/05/01 07:20:08;;;;;;;;;;;;;;;16.58;78.97;100691.84;1773039;81;20128;-75
2022/05/01 07:22:36;;;;;;;;;;;;;;;16.55;80.38;100694.43;1773163;81;20129;-74
2022/05/01 07:25:03;;;;;;;;;;;;;;;16.55;81.58;100696.33;1773135;81;20105;-75
2022/05/01 07:27:31;;;;;;;;;;;;;;;16.53;84.72;100692.42;1773077;81;20146;-75
2022/05/01 07:29:59;;;;;;;;;;;;;;;16.58;89.86;100691.84;1773077;81;20109;-74
2022/05/01 07:32:26;;;;;;;;;;;;;;;16.69;93.83;100692.16;1773108;81;20121;-75
2022/05/01 07:34:53;;;;;;;;;;;;;;;16.85;92.53;100691.60;1779587;80;20106;-75
2022/05/01 07:37:22;;;;;;;;;;;;;;;16.97;87.54;100691.39;1775170;80;20120;-77
2022/05/01 07:39:49;;;;;;;;;;;;;;;16.99;81.47;100683.84;1772787;81;20124;-75
2022/05/01 07:42:15;;;;;;;;;;;;;;;16.88;80.63;100686.59;1786593;80;20109;-75
2022/05/01 07:44:43;;;;;;;;;;;;;;;16.91;81.91;100690.83;1803543;80;20107;-74
2022/05/01 07:47:09;;;;;;;;;;;;;;;17.05;85.55;100697.23;1803472;79;20108;-74
2022/05/01 07:49:36;;;;;;;;;;;;;;;17.22;83.77;100689.59;1803100;80;20124;-76
2022/05/01 07:52:03;;;;;;;;;;;;;;;17.23;80.54;100684.46;1804089;80;20104;-74
2022/05/01 07:54:30;;;;;;;;;;;;;;;17.17;79.50;100687.45;1804711;79;20130;-74
2022/05/01 07:56:58;;;;;;;;;;;;;;;17.16;78.61;100688.51;1803493;80;20429;-75
2022/05/01 07:59:25;;;;;;;;;;;;;;;17.02;74.42;100693.55;1803251;80;20104;-75
2022/05/01 08:01:53;;;;;;;;;;;;;;;16.97;77.03;100690.03;1796256;80;20404;-74
2022/05/01 08:04:28;;;;;;;;;;;;;;;17.13;80.22;100681.23;1803402;80;20087;-74
2022/05/01 08:06:59;;;;;;;;;;;;;;;17.32;78.12;100683.27;1803367;80;20151;-74
2022/05/01 08:09:27;;;;;;;;;;;;;;;17.52;78.54;100680.64;1803298;79;20135;-74
2022/05/01 08:11:53;;;;;;;;;;;;;;;17.66;79.71;100680.20;1803419;79;20107;-73
2022/05/01 08:14:21;;;;;;;;;;;;;;;17.79;76.53;100669.31;1803480;80;20432;-73
2022/05/01 08:16:49;;;;;;;;;;;;;;;18.23;78.74;100679.52;1803515;80;20123;-73
2022/05/01 08:22:01;;;;;;;;;;;;;;;19.28;77.40;100677.63;1803521;80;20147;-75
2022/05/01 08:24:28;;;;;;;;;;;;;;;19.65;73.31;100665.64;1803522;80;20091;-75
2022/05/01 08:26:56;;;;;;;;;;;;;;;19.71;70.35;100670.28;1803126;80;20108;-72
2022/05/01 08:29:23;;;;;;;;;;;;;;;19.58;65.96;100664.81;1803296;80;20120;-75
2022/05/01 08:31:50;;;;;;;;;;;;;;;19.23;59.90;100663.72;1803362;80;20116;-74
2022/05/01 08:34:17;;;;;;;;;;;;;;;18.92;63.13;100663.86;1801159;79;20128;-74
2022/05/01 08:36:45;;;;;;;;;;;;;;;18.86;63.15;100661.98;1800211;80;20405;-75
2022/05/01 08:39:12;;;;;;;;;;;;;;;18.85;64.28;100652.89;1803799;79;20132;-77
2022/05/01 08:41:40;;;;;;;;;;;;;;;18.80;61.81;100662.23;1779933;80;20096;-73
2022/05/01 08:44:08;;;;;;;;;;;;;;;18.67;62.92;100657.59;1749144;82;20100;-74
2022/05/01 08:47:02;;;;;;;;;;;;;;;18.74;63.65;100657.61;1749315;82;20087;-74
2022/05/01 08:49:31;;;;;;;;;;;;;;;18.85;61.98;100646.05;1723788;83;20408;-72
2022/05/01 08:52:00;;;;;;;;;;;;;;;18.85;58.92;100654.27;1728748;82;20111;-74
2022/05/01 08:54:26;;;;;;;;;;;;;;;18.76;53.13;100651.39;1728442;82;20099;-72
2022/05/01 08:56:53;;;;;;;;;;;;;;;18.64;53.47;100653.90;1749332;82;20100;-75
2022/05/01 08:59:20;;;;;;;;;;;;;;;18.67;55.77;100643.07;1749421;82;20119;-76
2022/05/01 09:01:47;;;;;;;;;;;;;;;18.78;57.36;100641.89;1749304;82;20102;-75
2022/05/01 09:04:14;;;;;;;;;;;;;;;18.96;59.39;100635.84;1749275;82;20428;-76
2022/05/01 09:06:42;;;;;;;;;;;;;;;19.18;59.51;100633.39;1749234;82;20112;-73
2022/05/01 09:09:12;;;;;;;;;;;;;;;19.30;58.70;100631.14;1749331;82;20100;-74
2022/05/01 09:14:25;;;;;;;;;;;;;;;;;;1723653;83;20394;-75
2022/05/01 09:17:12;;;;;;;;;;;;;;;19.90;55.30;100620.00;1723564;83;20159;-73
2022/05/01 09:19:42;;;;;;;;;;;;;;;20.20;53.88;100613.92;1623053;88;20172;-76
2022/05/01 09:22:11;;;;;;;;;;;;;;;20.75;55.47;100615.23;1602746;88;22192;-73
2022/05/01 09:24:39;;;;;;;;;;;;;;;21.18;52.55;100609.76;1624432;87;20116;-73
2022/05/01 09:27:06;;;;;;;;;;;;;;;21.45;47.13;100612.22;1624585;88;20141;-75
2022/05/01 09:29:34;;;;;;;;;;;;;;;21.43;46.05;100602.81;1624491;88;20152;-73
2022/05/01 09:32:03;;;;;;;;;;;;;;;21.38;46.54;100610.08;1624624;88;20112;-73
2022/05/01 09:34:32;;;;;;;;;;;;;;;21.30;46.99;100605.73;1620244;88;20487;-75
2022/05/01 09:37:00;;;;;;;;;;;;;;;20.99;45.10;100604.76;1604328;89;20161;-73
2022/05/01 09:39:29;;;;;;;;;;;;;;;20.53;42.89;100612.84;1602135;90;20411;-73
2022/05/01 09:41:57;;;;;;;;;;;;;;;19.99;42.92;100612.86;1660737;86;20126;-73
2022/05/01 09:44:24;;;;;;;;;;;;;;;19.54;43.53;100613.66;1668162;86;20157;-75
2022/05/01 09:46:52;;;;;;;;;;;;;;;19.27;44.06;100612.91;1669928;86;20178;-74
2022/05/01 09:49:19;;;;;;;;;;;;;;;18.85;44.17;100613.70;1667406;86;20102;-75
2022/05/01 09:51:55;;;;;;;;;;;;;;;18.56;46.57;100615.25;1692171;84;20381;-75
2022/05/01 09:54:26;;;;;;;;;;;;;;;18.34;47.41;100615.11;1690356;85;20115;-73
2022/05/01 09:56:57;;;;;;;;;;;;;;;18.23;49.17;100617.94;1692111;85;20095;-73
2022/05/01 09:59:25;;;;;;;;;;;;;;;18.22;50.22;100617.64;1692367;85;20099;-73
2022/05/01 10:02:06;;;;;;;;;;;;;;;18.15;51.12;100622.22;1692196;84;20124;-73
2022/05/01 10:04:36;;;;;;;;;;;;;;;18.09;51.95;100617.05;1692389;85;20103;-73
2022/05/01 10:07:04;;;;;;;;;;;;;;;18.11;54.81;100614.95;1692120;85;20140;-74
2022/05/01 10:09:33;;;;;;;;;;;;;;;18.14;54.44;100609.08;1692435;84;20120;-72
2022/05/01 10:12:06;;;;;;;;;;;;;;;18.12;54.31;100615.28;1730254;82;20442;-73
2022/05/01 10:14:33;;;;;;;;;;;;;;;18.16;54.86;100606.13;1750376;81;20165;-74
2022/05/01 10:17:00;;;;;;;;;;;;;;;18.20;54.61;100615.61;1752613;82;20154;-74
2022/05/01 10:19:27;;;;;;;;;;;;;;;18.21;55.72;100609.92;1752748;82;20098;-73
2022/05/01 10:21:56;;;;;;;;;;;;;;;18.28;55.31;100610.48;1752954;82;20091;-74
2022/05/01 10:24:23;;;;;;;;;;;;;;;18.38;56.42;100606.28;1714020;84;20086;-74
2022/05/01 10:27:17;;;;;;;;;;;;;;;18.49;54.78;100608.92;1665320;86;20457;-73
2022/05/01 10:32:53;;;;;;;;;;;;;;;18.35;52.79;100607.23;1665082;86;20403;-73
2022/05/01 10:35:23;;;;;;;;;;;;;;;18.45;54.37;100604.06;1710306;83;20509;-73
2022/05/01 10:38:12;;;;;;;;;;;;;;;18.55;53.77;100601.22;1688521;85;20623;-74
2022/05/01 10:40:54;;;;;;;;;;;;;;;18.56;52.39;100604.83;1699811;84;20101;-73
2022/05/01 10:43:26;;;;;;;;;;;;;;;18.50;51.45;100596.94;1697506;85;20192;-74
2022/05/01 10:45:55;;;;;;;;;;;;;;;18.38;50.29;100597.23;1697531;85;20175;-74
2022/05/01 10:48:36;;;;;;;;;;;;;;;18.27;51.04;100601.94;1697619;85;20140;-73
2022/05/01 10:51:30;;;;;;;;;;;;;;;18.23;51.32;100601.52;1697533;85;20112;-73
2022/05/01 10:54:15;;;;;;;;;;;;;;;18.15;51.14;100597.59;1668253;86;20117;-74
2022/05/01 10:56:44;;;;;;;;;;;;;;;18.05;51.61;100591.16;1668472;86;20415;-73
2022/05/01 10:59:38;;;;;;;;;;;;;;;18.04;52.75;100596.30;1613795;89;20145;-74
2022/05/01 11:02:05;;;;;;;;;;;;;;;18.06;53.27;100598.34;1613867;89;20138;-73
2022/05/01 11:04:41;;;;;;;;;;;;;;;18.10;51.47;100591.39;1592756;89;20137;-74
2022/05/01 11:07:11;;;;;;;;;;;;;;;17.96;50.44;100589.14;1613775;89;20118;-73
2022/05/01 11:09:39;;;;;;;;;;;;;;;17.80;51.89;100585.39;1613728;89;20118;-72
2022/05/01 11:12:07;;;;;;;;;;;;;;;17.82;53.77;100586.02;1592901;89;20460;-72
2022/05/01 11:14:39;;;;;;;;;;;;;;;17.81;52.01;100586.55;1613692;89;20098;-74
2022/05/01 11:17:07;;;;;;;;;;;;;;;17.73;52.07;100582.63;1613786;89;20102;-74
2022/05/01 11:19:45;;;;;;;;;;;;;;;17.72;53.48;100574.08;1613857;89;20135;-74
2022/05/01 11:22:13;;;;;;;;;;;;;;;17.66;55.26;100574.92;1588567;89;20142;-73
2022/05/01 11:24:44;;;;;;;;;;;;;;;17.65;54.43;100584.16;1584950;90;20145;-73
2022/05/01 11:30:08;;;;;;;;;;;;;;;17.50;53.74;100578.84;1559227;92;20158;-74
2022/05/01 11:32:46;;;;;;;;;;;;;;;17.39;53.41;100573.44;1561651;92;20127;-72
2022/05/01 11:35:13;;;;;;;;;;;;;;;17.29;53.45;100577.06;1520232;94;20407;-73
2022/05/01 11:37:52;;;;;;;;;;;;;;;17.16;55.11;100573.74;1519207;95;20182;-74
2022/05/01 11:40:24;;;;;;;;;;;;;;;17.18;55.16;100570.28;1542774;93;20116;-73
2022/05/01 11:42:50;;;;;;;;;;;;;;;17.15;55.38;100571.20;1543275;91;20152;-73
2022/05/01 11:45:18;;;;;;;;;;;;;;;17.16;55.23;100563.34;1545675;93;20143;-74
2022/05/01 11:47:49;;;;;;;;;;;;;;;17.19;55.50;100565.65;1545459;93;20157;-74
2022/05/01 11:50:18;;;;;;;;;;;;;;;17.23;56.11;100560.95;1545307;93;20128;-73
2022/05/01 11:52:52;;;;;;;;;;;;;;;17.26;55.87;100559.70;1545091;93;20167;-74
2022/05/01 11:55:19;;;;;;;;;;;;;;;17.31;58.17;100559.09;1545497;93;20121;-74
2022/05/01 12:03:30;;;;;;;;;;;;;;;17.31;56.26;100564.03;1556374;92;20131;-73
2022/05/01 12:05:57;;;;;;;;;;;;;;;17.25;56.38;100558.86;1528861;94;20137;-74
2022/05/01 12:08:23;;;;;;;;;;;;;;;17.20;57.09;100556.42;1525115;94;20454;-73
2022/05/01 12:10:52;;;;;;;;;;;;;;;17.14;57.94;100557.21;1525229;91;20117;-74
2022/05/01 12:13:22;;;;;;;;;;;;;;;17.11;57.72;100554.91;1525059;94;20117;-74
2022/05/01 12:15:50;;;;;;;;;;;;;;;17.10;57.71;100558.67;1528848;94;20147;-73
2022/05/01 12:18:16;;;;;;;;;;;;;;;17.04;56.72;100557.06;1528898;94;20138;-74
2022/05/01 12:20:43;;;;;;;;;;;;;;;17.02;57.19;100552.85;1524634;94;20120;-74
2022/05/01 12:23:14;;;;;;;;;;;;;;;16.98;56.96;100559.74;1551520;91;20155;-74
2022/05/01 12:25:41;;;;;;;;;;;;;;;16.92;55.40;100555.09;1549491;93;20167;-74
2022/05/01 12:28:10;;;;;;;;;;;;;;;16.85;55.14;100555.87;1549673;93;20123;-74
2022/05/01 12:30:39;;;;;;;;;;;;;;;16.81;55.13;100546.91;1549610;93;20456;-74
2022/05/01 12:33:06;;;;;;;;;;;;;;;16.80;55.99;100551.53;1650644;85;20112;-73
2022/05/01 12:35:58;;;;;;;;;;;;;;;16.82;56.59;100549.44;1692437;84;20435;-73
2022/05/01 12:38:29;;;;;;;;;;;;;;;16.79;57.34;100544.91;1674059;86;20133;-73
2022/05/01 12:43:59;;;;;;;;;;;;;;;16.94;57.79;100540.17;1690053;85;20147;-74
2022/05/01 12:46:28;;;;;;;;;;;;;;;17.14;59.17;100531.25;1690182;85;20452;-74
2022/05/01 12:48:56;;;;;;;;;;;;;;;17.37;57.91;100532.30;1658429;84;20419;-72
2022/05/01 12:51:25;;;;;;;;;;;;;;;17.65;57.17;100534.94;1701980;84;20163;-72
2022/05/01 12:54:09;;;;;;;;;;;;;;;17.98;54.38;100536.42;1702102;84;20127;-73
2022/05/01 12:56:37;;;;;;;;;;;;;;;18.48;54.06;100531.09;1635645;86;20126;-73
2022/05/01 12:59:22;;;;;;;;;;;;;;;18.87;50.77;100519.27;1635431;88;20181;-74
2022/05/01 13:01:49;;;;;;;;;;;;;;;19.12;50.54;100516.70;1635679;88;20391;-74
2022/05/01 13:04:24;;;;;;;;;;;;;;;19.36;47.94;100512.91;1635684;88;20110;-74
2022/05/01 13:06:51;;;;;;;;;;;;;;;19.49;47.86;100512.83;1635542;88;20430;-74
2022/05/01 13:09:18;;;;;;;;;;;;;;;19.73;48.37;100501.66;1635512;88;20114;-73
2022/05/01 13:12:03;;;;;;;;;;;;;;;19.96;48.13;100500.26;1635550;88;20391;-74
2022/05/01 13:14:33;;;;;;;;;;;;;;;20.04;48.45;100501.88;1635682;88;20152;-73
2022/05/01 13:17:11;;;;;;;;;;;;;;;20.04;46.92;100504.13;1635554;88;20107;-73
2022/05/01 13:19:38;;;;;;;;;;;;;;;19.87;46.44;100507.08;1635578;88;20159;-73